sensor_id;sensor_type;location;lat;lon;timestamp;P1;durP1;ratioP1;P2;durP2;ratioP2
83026;SDS011;72842;56.038;12.706;2023-11-21T00:01:54;5.20;;;4.45;;
83026;SDS011;72842;56.038;12.706;2023-11-21T00:04:20;5.88;;;4.75;;
83026;SDS011;72842;56.038;12.706;2023-11-21T00:06:45;5.82;;;3.75;;
83026;SDS011;72842;56.038;12.706;2023-11-21T00:09:12;5.05;;;4.50;;
83026;SDS011;72842;56.038;12.706;2023-11-21T00:11:40;4.20;;;3.80;;
83026;SDS011;72842;56.038;12.706;2023-11-21T00:14:06;3.95;;;3.60;;
83026;SDS011;72842;56.038;12.706;2023-11-21T00:16:31;5.95;;;3.88;;
83026;SDS011;72842;56.038;12.706;2023-11-21T00:18:57;6.35;;;4.57;;
83026;SDS011;72842;56.038;12.706;2023-11-21T00:21:22;4.47;;;3.60;;
83026;SDS011;72842;56.038;12.706;2023-11-21T00:23:48;5.68;;;4.05;;
83026;SDS011;72842;56.038;12.706;2023-11-21T00:26:14;4.88;;;4.10;;
83026;SDS011;72842;56.038;12.706;2023-11-21T00:28:39;4.88;;;4.35;;
83026;SDS011;72842;56.038;12.706;2023-11-21T00:31:05;4.47;;;4.07;;
83026;SDS011;72842;56.038;12.706;2023-11-21T00:33:30;3.80;;;2.85;;
83026;SDS011;72842;56.038;12.706;2023-11-21T00:35:56;4.45;;;4.05;;
83026;SDS011;72842;56.038;12.706;2023-11-21T00:38:22;3.88;;;3.08;;
83026;SDS011;72842;56.038;12.706;2023-11-21T00:40:48;5.10;;;3.45;;
83026;SDS011;72842;56.038;12.706;2023-11-21T00:43:13;4.75;;;3.95;;
83026;SDS011;72842;56.038;12.706;2023-11-21T00:45:39;5.30;;;4.15;;
83026;SDS011;72842;56.038;12.706;2023-11-21T00:48:05;5.97;;;4.10;;
83026;SDS011;72842;56.038;12.706;2023-11-21T00:50:30;5.97;;;4.32;;
83026;SDS011;72842;56.038;12.706;2023-11-21T00:52:56;4.40;;;3.22;;
83026;SDS011;72842;56.038;12.706;2023-11-21T00:55:22;4.70;;;3.80;;
83026;SDS011;72842;56.038;12.706;2023-11-21T00:57:48;5.25;;;4.68;;
83026;SDS011;72842;56.038;12.706;2023-11-21T01:00:13;5.03;;;4.38;;
83026;SDS011;72842;56.038;12.706;2023-11-21T01:02:42;5.00;;;3.88;;
83026;SDS011;72842;56.038;12.706;2023-11-21T01:05:09;4.22;;;3.83;;
83026;SDS011;72842;56.038;12.706;2023-11-21T01:07:35;5.45;;;3.42;;
83026;SDS011;72842;56.038;12.706;2023-11-21T01:10:02;3.78;;;3.30;;
83026;SDS011;72842;56.038;12.706;2023-11-21T01:12:28;4.68;;;3.72;;
83026;SDS011;72842;56.038;12.706;2023-11-21T01:14:53;4.03;;;3.70;;
83026;SDS011;72842;56.038;12.706;2023-11-21T01:17:19;5.93;;;4.25;;
83026;SDS011;72842;56.038;12.706;2023-11-21T01:19:44;4.50;;;2.83;;
83026;SDS011;72842;56.038;12.706;2023-11-21T01:22:10;4.50;;;3.90;;
83026;SDS011;72842;56.038;12.706;2023-11-21T01:24:37;4.47;;;4.07;;
83026;SDS011;72842;56.038;12.706;2023-11-21T01:27:02;4.60;;;4.20;;
83026;SDS011;72842;56.038;12.706;2023-11-21T01:29:29;4.35;;;3.65;;
83026;SDS011;72842;56.038;12.706;2023-11-21T01:31:55;4.93;;;4.03;;
83026;SDS011;72842;56.038;12.706;2023-11-21T01:34:22;5.32;;;4.68;;
83026;SDS011;72842;56.038;12.706;2023-11-21T01:36:48;7.18;;;4.25;;
83026;SDS011;72842;56.038;12.706;2023-11-21T01:39:14;5.25;;;4.75;;
83026;SDS011;72842;56.038;12.706;2023-11-21T01:41:41;5.15;;;3.35;;
83026;SDS011;72842;56.038;12.706;2023-11-21T01:44:09;4.07;;;3.53;;
83026;SDS011;72842;56.038;12.706;2023-11-21T01:46:35;4.30;;;3.90;;
83026;SDS011;72842;56.038;12.706;2023-11-21T01:49:02;4.35;;;3.25;;
83026;SDS011;72842;56.038;12.706;2023-11-21T01:51:28;4.25;;;3.85;;
83026;SDS011;72842;56.038;12.706;2023-11-21T01:53:54;3.78;;;2.80;;
83026;SDS011;72842;56.038;12.706;2023-11-21T01:56:19;5.95;;;4.03;;
83026;SDS011;72842;56.038;12.706;2023-11-21T01:58:45;4.85;;;4.00;;
83026;SDS011;72842;56.038;12.706;2023-11-21T02:01:11;5.05;;;4.10;;
83026;SDS011;72842;56.038;12.706;2023-11-21T02:03:37;5.00;;;4.07;;
83026;SDS011;72842;56.038;12.706;2023-11-21T02:06:02;4.90;;;4.32;;
83026;SDS011;72842;56.038;12.706;2023-11-21T02:08:28;4.30;;;3.78;;
83026;SDS011;72842;56.038;12.706;2023-11-21T02:10:54;4.90;;;3.88;;
83026;SDS011;72842;56.038;12.706;2023-11-21T02:13:19;4.57;;;4.18;;
83026;SDS011;72842;56.038;12.706;2023-11-21T02:15:45;4.53;;;4.13;;
83026;SDS011;72842;56.038;12.706;2023-11-21T02:18:10;3.63;;;3.22;;
83026;SDS011;72842;56.038;12.706;2023-11-21T02:20:36;4.25;;;3.90;;
83026;SDS011;72842;56.038;12.706;2023-11-21T02:23:04;4.30;;;3.90;;
83026;SDS011;72842;56.038;12.706;2023-11-21T02:25:30;6.22;;;4.35;;
83026;SDS011;72842;56.038;12.706;2023-11-21T02:27:58;5.97;;;4.15;;
83026;SDS011;72842;56.038;12.706;2023-11-21T02:30:27;4.72;;;4.13;;
83026;SDS011;72842;56.038;12.706;2023-11-21T02:32:53;4.45;;;4.05;;
83026;SDS011;72842;56.038;12.706;2023-11-21T02:35:19;4.38;;;3.30;;
83026;SDS011;72842;56.038;12.706;2023-11-21T02:37:50;4.10;;;3.53;;
83026;SDS011;72842;56.038;12.706;2023-11-21T02:40:16;4.65;;;4.25;;
83026;SDS011;72842;56.038;12.706;2023-11-21T02:42:45;4.20;;;3.75;;
83026;SDS011;72842;56.038;12.706;2023-11-21T02:45:12;5.28;;;4.50;;
83026;SDS011;72842;56.038;12.706;2023-11-21T02:47:41;4.35;;;3.70;;
83026;SDS011;72842;56.038;12.706;2023-11-21T02:50:07;4.15;;;3.75;;
83026;SDS011;72842;56.038;12.706;2023-11-21T02:52:34;4.03;;;3.63;;
83026;SDS011;72842;56.038;12.706;2023-11-21T02:55:00;6.07;;;3.70;;
83026;SDS011;72842;56.038;12.706;2023-11-21T02:57:26;4.32;;;3.15;;
83026;SDS011;72842;56.038;12.706;2023-11-21T02:59:51;5.82;;;3.92;;
83026;SDS011;72842;56.038;12.706;2023-11-21T03:02:17;4.32;;;3.92;;
83026;SDS011;72842;56.038;12.706;2023-11-21T03:04:42;4.82;;;4.43;;
83026;SDS011;72842;56.038;12.706;2023-11-21T03:07:08;5.28;;;4.30;;
83026;SDS011;72842;56.038;12.706;2023-11-21T03:09:34;4.45;;;4.00;;
83026;SDS011;72842;56.038;12.706;2023-11-21T03:12:00;5.72;;;3.75;;
83026;SDS011;72842;56.038;12.706;2023-11-21T03:14:26;4.70;;;4.18;;
83026;SDS011;72842;56.038;12.706;2023-11-21T03:16:51;4.78;;;3.53;;
83026;SDS011;72842;56.038;12.706;2023-11-21T03:19:17;4.95;;;4.47;;
83026;SDS011;72842;56.038;12.706;2023-11-21T03:21:42;5.80;;;3.95;;
83026;SDS011;72842;56.038;12.706;2023-11-21T03:24:08;5.50;;;4.13;;
83026;SDS011;72842;56.038;12.706;2023-11-21T03:26:33;5.05;;;3.97;;
83026;SDS011;72842;56.038;12.706;2023-11-21T03:28:59;4.68;;;4.00;;
83026;SDS011;72842;56.038;12.706;2023-11-21T03:31:24;4.95;;;4.07;;
83026;SDS011;72842;56.038;12.706;2023-11-21T03:33:50;5.13;;;4.72;;
83026;SDS011;72842;56.038;12.706;2023-11-21T03:36:15;4.50;;;3.38;;
83026;SDS011;72842;56.038;12.706;2023-11-21T03:38:41;3.83;;;3.35;;
83026;SDS011;72842;56.038;12.706;2023-11-21T03:41:07;5.38;;;3.83;;
83026;SDS011;72842;56.038;12.706;2023-11-21T03:43:35;5.80;;;3.88;;
83026;SDS011;72842;56.038;12.706;2023-11-21T03:46:01;4.45;;;4.05;;
83026;SDS011;72842;56.038;12.706;2023-11-21T03:48:26;4.68;;;3.70;;
83026;SDS011;72842;56.038;12.706;2023-11-21T03:50:52;4.53;;;4.13;;
83026;SDS011;72842;56.038;12.706;2023-11-21T03:53:17;4.78;;;3.95;;
83026;SDS011;72842;56.038;12.706;2023-11-21T03:55:43;4.43;;;4.03;;
83026;SDS011;72842;56.038;12.706;2023-11-21T03:58:08;4.43;;;3.10;;
83026;SDS011;72842;56.038;12.706;2023-11-21T04:00:34;4.60;;;4.10;;
83026;SDS011;72842;56.038;12.706;2023-11-21T04:02:59;6.60;;;4.40;;
83026;SDS011;72842;56.038;12.706;2023-11-21T04:05:24;4.13;;;3.72;;
83026;SDS011;72842;56.038;12.706;2023-11-21T04:07:50;5.57;;;4.25;;
83026;SDS011;72842;56.038;12.706;2023-11-21T04:10:16;5.40;;;4.00;;
83026;SDS011;72842;56.038;12.706;2023-11-21T04:12:42;5.13;;;4.40;;
83026;SDS011;72842;56.038;12.706;2023-11-21T04:15:07;4.40;;;4.00;;
83026;SDS011;72842;56.038;12.706;2023-11-21T04:17:34;5.25;;;4.50;;
83026;SDS011;72842;56.038;12.706;2023-11-21T04:20:00;4.35;;;3.40;;
83026;SDS011;72842;56.038;12.706;2023-11-21T04:22:25;4.03;;;3.63;;
83026;SDS011;72842;56.038;12.706;2023-11-21T04:24:51;6.03;;;4.30;;
83026;SDS011;72842;56.038;12.706;2023-11-21T04:27:16;4.70;;;4.07;;
83026;SDS011;72842;56.038;12.706;2023-11-21T04:29:45;4.88;;;3.83;;
83026;SDS011;72842;56.038;12.706;2023-11-21T04:32:10;5.18;;;4.32;;
83026;SDS011;72842;56.038;12.706;2023-11-21T04:34:37;4.35;;;3.95;;
83026;SDS011;72842;56.038;12.706;2023-11-21T04:37:03;4.65;;;4.20;;
83026;SDS011;72842;56.038;12.706;2023-11-21T04:39:31;4.05;;;3.65;;
83026;SDS011;72842;56.038;12.706;2023-11-21T04:41:56;5.38;;;4.88;;
83026;SDS011;72842;56.038;12.706;2023-11-21T04:44:22;4.20;;;3.55;;
83026;SDS011;72842;56.038;12.706;2023-11-21T04:46:47;4.28;;;3.80;;
83026;SDS011;72842;56.038;12.706;2023-11-21T04:49:13;4.65;;;4.00;;
83026;SDS011;72842;56.038;12.706;2023-11-21T04:51:39;4.55;;;3.17;;
83026;SDS011;72842;56.038;12.706;2023-11-21T04:54:04;4.72;;;4.03;;
83026;SDS011;72842;56.038;12.706;2023-11-21T04:56:30;4.40;;;3.85;;
83026;SDS011;72842;56.038;12.706;2023-11-21T04:58:56;4.53;;;4.13;;
83026;SDS011;72842;56.038;12.706;2023-11-21T05:01:21;4.68;;;3.35;;
83026;SDS011;72842;56.038;12.706;2023-11-21T05:03:47;4.68;;;4.18;;
83026;SDS011;72842;56.038;12.706;2023-11-21T05:06:14;5.15;;;4.35;;
83026;SDS011;72842;56.038;12.706;2023-11-21T05:08:39;4.88;;;3.55;;
83026;SDS011;72842;56.038;12.706;2023-11-21T05:11:05;4.70;;;4.30;;
83026;SDS011;72842;56.038;12.706;2023-11-21T05:13:33;4.82;;;4.10;;
83026;SDS011;72842;56.038;12.706;2023-11-21T05:15:59;4.78;;;3.92;;
83026;SDS011;72842;56.038;12.706;2023-11-21T05:18:24;5.30;;;2.88;;
83026;SDS011;72842;56.038;12.706;2023-11-21T05:20:54;4.45;;;3.92;;
83026;SDS011;72842;56.038;12.706;2023-11-21T05:23:20;4.22;;;3.78;;
83026;SDS011;72842;56.038;12.706;2023-11-21T05:25:46;5.63;;;4.32;;
83026;SDS011;72842;56.038;12.706;2023-11-21T05:28:12;4.65;;;3.38;;
83026;SDS011;72842;56.038;12.706;2023-11-21T05:30:37;5.60;;;4.57;;
83026;SDS011;72842;56.038;12.706;2023-11-21T05:33:06;4.72;;;3.72;;
83026;SDS011;72842;56.038;12.706;2023-11-21T05:35:31;5.07;;;4.25;;
83026;SDS011;72842;56.038;12.706;2023-11-21T05:37:57;5.07;;;4.07;;
83026;SDS011;72842;56.038;12.706;2023-11-21T05:40:22;5.80;;;4.30;;
83026;SDS011;72842;56.038;12.706;2023-11-21T05:42:48;5.32;;;3.70;;
83026;SDS011;72842;56.038;12.706;2023-11-21T05:45:14;4.13;;;3.72;;
83026;SDS011;72842;56.038;12.706;2023-11-21T05:47:43;4.82;;;3.55;;
83026;SDS011;72842;56.038;12.706;2023-11-21T05:50:11;4.88;;;4.10;;
83026;SDS011;72842;56.038;12.706;2023-11-21T05:52:48;4.50;;;4.10;;
83026;SDS011;72842;56.038;12.706;2023-11-21T05:55:14;5.38;;;4.25;;
83026;SDS011;72842;56.038;12.706;2023-11-21T05:57:41;5.18;;;4.18;;
83026;SDS011;72842;56.038;12.706;2023-11-21T06:00:09;4.85;;;4.00;;
83026;SDS011;72842;56.038;12.706;2023-11-21T06:02:39;5.30;;;4.10;;
83026;SDS011;72842;56.038;12.706;2023-11-21T06:05:09;5.30;;;4.75;;
83026;SDS011;72842;56.038;12.706;2023-11-21T06:07:35;5.05;;;4.55;;
83026;SDS011;72842;56.038;12.706;2023-11-21T06:10:04;5.30;;;4.68;;
83026;SDS011;72842;56.038;12.706;2023-11-21T06:12:37;4.75;;;3.13;;
83026;SDS011;72842;56.038;12.706;2023-11-21T06:15:05;5.35;;;3.97;;
83026;SDS011;72842;56.038;12.706;2023-11-21T06:17:33;5.25;;;4.32;;
83026;SDS011;72842;56.038;12.706;2023-11-21T06:20:03;6.30;;;4.55;;
83026;SDS011;72842;56.038;12.706;2023-11-21T06:22:34;5.82;;;4.43;;
83026;SDS011;72842;56.038;12.706;2023-11-21T06:25:01;6.07;;;4.20;;
83026;SDS011;72842;56.038;12.706;2023-11-21T06:27:27;5.18;;;4.43;;
83026;SDS011;72842;56.038;12.706;2023-11-21T06:29:53;5.47;;;4.40;;
83026;SDS011;72842;56.038;12.706;2023-11-21T06:32:18;4.88;;;3.28;;
83026;SDS011;72842;56.038;12.706;2023-11-21T06:34:45;4.88;;;4.05;;
83026;SDS011;72842;56.038;12.706;2023-11-21T06:37:11;5.20;;;4.35;;
83026;SDS011;72842;56.038;12.706;2023-11-21T06:39:37;5.38;;;4.78;;
83026;SDS011;72842;56.038;12.706;2023-11-21T06:42:03;5.43;;;4.22;;
83026;SDS011;72842;56.038;12.706;2023-11-21T06:44:29;5.43;;;4.13;;
83026;SDS011;72842;56.038;12.706;2023-11-21T06:46:54;5.35;;;4.70;;
83026;SDS011;72842;56.038;12.706;2023-11-21T06:49:20;6.68;;;3.85;;
83026;SDS011;72842;56.038;12.706;2023-11-21T06:51:45;6.32;;;4.47;;
83026;SDS011;72842;56.038;12.706;2023-11-21T06:54:11;6.30;;;4.50;;
83026;SDS011;72842;56.038;12.706;2023-11-21T06:56:36;5.72;;;4.38;;
83026;SDS011;72842;56.038;12.706;2023-11-21T06:59:04;5.82;;;4.32;;
83026;SDS011;72842;56.038;12.706;2023-11-21T07:01:30;7.35;;;4.72;;
83026;SDS011;72842;56.038;12.706;2023-11-21T07:03:59;5.05;;;4.53;;
83026;SDS011;72842;56.038;12.706;2023-11-21T07:06:24;5.25;;;4.50;;
83026;SDS011;72842;56.038;12.706;2023-11-21T07:08:50;6.07;;;3.95;;
83026;SDS011;72842;56.038;12.706;2023-11-21T07:11:15;6.72;;;4.30;;
83026;SDS011;72842;56.038;12.706;2023-11-21T07:13:41;4.25;;;3.50;;
83026;SDS011;72842;56.038;12.706;2023-11-21T07:16:06;7.88;;;3.92;;
83026;SDS011;72842;56.038;12.706;2023-11-21T07:18:32;5.97;;;4.30;;
83026;SDS011;72842;56.038;12.706;2023-11-21T07:20:57;5.55;;;4.82;;
83026;SDS011;72842;56.038;12.706;2023-11-21T07:23:23;4.55;;;4.15;;
83026;SDS011;72842;56.038;12.706;2023-11-21T07:25:49;4.72;;;3.83;;
83026;SDS011;72842;56.038;12.706;2023-11-21T07:28:14;5.25;;;3.88;;
83026;SDS011;72842;56.038;12.706;2023-11-21T07:30:40;4.65;;;3.95;;
83026;SDS011;72842;56.038;12.706;2023-11-21T07:33:05;4.22;;;3.83;;
83026;SDS011;72842;56.038;12.706;2023-11-21T07:35:32;5.53;;;4.28;;
83026;SDS011;72842;56.038;12.706;2023-11-21T07:37:57;4.28;;;3.88;;
83026;SDS011;72842;56.038;12.706;2023-11-21T07:40:23;4.82;;;3.83;;
83026;SDS011;72842;56.038;12.706;2023-11-21T07:42:48;4.30;;;3.55;;
83026;SDS011;72842;56.038;12.706;2023-11-21T07:45:15;5.97;;;3.83;;
83026;SDS011;72842;56.038;12.706;2023-11-21T07:47:40;4.72;;;3.55;;
83026;SDS011;72842;56.038;12.706;2023-11-21T07:50:06;4.72;;;4.00;;
83026;SDS011;72842;56.038;12.706;2023-11-21T07:52:32;5.05;;;3.58;;
83026;SDS011;72842;56.038;12.706;2023-11-21T07:54:58;4.10;;;2.90;;
83026;SDS011;72842;56.038;12.706;2023-11-21T07:57:24;4.75;;;4.28;;
83026;SDS011;72842;56.038;12.706;2023-11-21T07:59:49;5.22;;;3.92;;
83026;SDS011;72842;56.038;12.706;2023-11-21T08:02:15;6.22;;;4.30;;
83026;SDS011;72842;56.038;12.706;2023-11-21T08:04:42;3.95;;;3.65;;
83026;SDS011;72842;56.038;12.706;2023-11-21T08:07:08;4.63;;;3.65;;
83026;SDS011;72842;56.038;12.706;2023-11-21T08:09:34;4.47;;;3.42;;
83026;SDS011;72842;56.038;12.706;2023-11-21T08:12:00;3.47;;;3.13;;
83026;SDS011;72842;56.038;12.706;2023-11-21T08:14:27;3.83;;;3.53;;
83026;SDS011;72842;56.038;12.706;2023-11-21T08:16:52;4.60;;;4.07;;
83026;SDS011;72842;56.038;12.706;2023-11-21T08:19:22;3.38;;;3.08;;
83026;SDS011;72842;56.038;12.706;2023-11-21T08:21:50;4.25;;;3.25;;
83026;SDS011;72842;56.038;12.706;2023-11-21T08:24:16;4.03;;;3.63;;
83026;SDS011;72842;56.038;12.706;2023-11-21T08:26:41;5.53;;;3.85;;
83026;SDS011;72842;56.038;12.706;2023-11-21T08:29:07;4.55;;;3.83;;
83026;SDS011;72842;56.038;12.706;2023-11-21T08:31:32;4.30;;;3.25;;
83026;SDS011;72842;56.038;12.706;2023-11-21T08:33:58;3.65;;;2.92;;
83026;SDS011;72842;56.038;12.706;2023-11-21T08:36:23;5.35;;;3.33;;
83026;SDS011;72842;56.038;12.706;2023-11-21T08:38:50;3.78;;;3.30;;
83026;SDS011;72842;56.038;12.706;2023-11-21T08:41:19;4.20;;;3.70;;
83026;SDS011;72842;56.038;12.706;2023-11-21T08:43:49;3.42;;;2.80;;
83026;SDS011;72842;56.038;12.706;2023-11-21T08:46:15;4.78;;;3.55;;
83026;SDS011;72842;56.038;12.706;2023-11-21T08:48:42;4.53;;;3.80;;
83026;SDS011;72842;56.038;12.706;2023-11-21T08:51:09;4.82;;;3.08;;
83026;SDS011;72842;56.038;12.706;2023-11-21T08:53:36;3.72;;;3.15;;
83026;SDS011;72842;56.038;12.706;2023-11-21T08:56:03;3.13;;;2.80;;
83026;SDS011;72842;56.038;12.706;2023-11-21T08:58:29;4.82;;;3.17;;
83026;SDS011;72842;56.038;12.706;2023-11-21T09:00:57;5.40;;;3.53;;
83026;SDS011;72842;56.038;12.706;2023-11-21T09:03:22;2.92;;;2.63;;
83026;SDS011;72842;56.038;12.706;2023-11-21T09:05:48;3.38;;;2.80;;
83026;SDS011;72842;56.038;12.706;2023-11-21T09:08:13;3.33;;;3.00;;
83026;SDS011;72842;56.038;12.706;2023-11-21T09:10:39;4.88;;;3.28;;
83026;SDS011;72842;56.038;12.706;2023-11-21T09:13:04;2.67;;;2.22;;
83026;SDS011;72842;56.038;12.706;2023-11-21T09:15:30;4.28;;;2.90;;
83026;SDS011;72842;56.038;12.706;2023-11-21T09:17:55;4.25;;;2.25;;
83026;SDS011;72842;56.038;12.706;2023-11-21T09:20:21;4.30;;;2.90;;
83026;SDS011;72842;56.038;12.706;2023-11-21T09:22:48;3.47;;;3.17;;
83026;SDS011;72842;56.038;12.706;2023-11-21T09:25:14;4.63;;;2.90;;
83026;SDS011;72842;56.038;12.706;2023-11-21T09:27:40;3.53;;;3.20;;
83026;SDS011;72842;56.038;12.706;2023-11-21T09:30:06;3.65;;;3.33;;
83026;SDS011;72842;56.038;12.706;2023-11-21T09:32:35;3.15;;;2.85;;
83026;SDS011;72842;56.038;12.706;2023-11-21T09:35:03;2.70;;;2.47;;
83026;SDS011;72842;56.038;12.706;2023-11-21T09:37:30;3.88;;;2.92;;
83026;SDS011;72842;56.038;12.706;2023-11-21T09:39:56;3.28;;;2.70;;
83026;SDS011;72842;56.038;12.706;2023-11-21T09:42:38;3.00;;;2.80;;
83026;SDS011;72842;56.038;12.706;2023-11-21T09:48:05;2.20;;;2.00;;
83026;SDS011;72842;56.038;12.706;2023-11-21T09:50:31;3.53;;;2.25;;
83026;SDS011;72842;56.038;12.706;2023-11-21T09:55:34;3.05;;;2.42;;
83026;SDS011;72842;56.038;12.706;2023-11-21T10:00:32;2.97;;;2.00;;
83026;SDS011;72842;56.038;12.706;2023-11-21T10:02:58;3.13;;;2.70;;
83026;SDS011;72842;56.038;12.706;2023-11-21T10:05:25;3.53;;;2.78;;
83026;SDS011;72842;56.038;12.706;2023-11-21T10:07:50;3.03;;;2.72;;
83026;SDS011;72842;56.038;12.706;2023-11-21T10:10:17;4.10;;;2.38;;
83026;SDS011;72842;56.038;12.706;2023-11-21T10:12:46;3.55;;;2.50;;
83026;SDS011;72842;56.038;12.706;2023-11-21T10:15:16;3.15;;;2.85;;
83026;SDS011;72842;56.038;12.706;2023-11-21T10:17:42;2.50;;;2.28;;
83026;SDS011;72842;56.038;12.706;2023-11-21T10:20:10;2.88;;;2.33;;
83026;SDS011;72842;56.038;12.706;2023-11-21T10:22:37;3.50;;;2.92;;
83026;SDS011;72842;56.038;12.706;2023-11-21T10:25:06;3.15;;;2.78;;
83026;SDS011;72842;56.038;12.706;2023-11-21T10:27:33;3.55;;;2.75;;
83026;SDS011;72842;56.038;12.706;2023-11-21T10:30:02;4.05;;;3.47;;
83026;SDS011;72842;56.038;12.706;2023-11-21T10:32:33;3.10;;;1.98;;
83026;SDS011;72842;56.038;12.706;2023-11-21T10:34:59;3.50;;;2.90;;
83026;SDS011;72842;56.038;12.706;2023-11-21T10:37:34;4.10;;;2.35;;
83026;SDS011;72842;56.038;12.706;2023-11-21T10:39:59;4.53;;;2.45;;
83026;SDS011;72842;56.038;12.706;2023-11-21T10:42:25;3.30;;;2.90;;
83026;SDS011;72842;56.038;12.706;2023-11-21T10:44:52;3.05;;;2.63;;
83026;SDS011;72842;56.038;12.706;2023-11-21T10:47:18;3.30;;;2.67;;
83026;SDS011;72842;56.038;12.706;2023-11-21T10:49:45;4.55;;;2.95;;
83026;SDS011;72842;56.038;12.706;2023-11-21T10:52:13;3.65;;;3.20;;
83026;SDS011;72842;56.038;12.706;2023-11-21T10:54:43;4.03;;;3.13;;
83026;SDS011;72842;56.038;12.706;2023-11-21T10:57:09;3.42;;;3.08;;
83026;SDS011;72842;56.038;12.706;2023-11-21T10:59:36;3.50;;;2.92;;
83026;SDS011;72842;56.038;12.706;2023-11-21T11:02:05;2.90;;;2.67;;
83026;SDS011;72842;56.038;12.706;2023-11-21T11:04:47;3.55;;;2.92;;
83026;SDS011;72842;56.038;12.706;2023-11-21T11:07:14;3.92;;;2.60;;
83026;SDS011;72842;56.038;12.706;2023-11-21T11:09:41;3.28;;;2.05;;
83026;SDS011;72842;56.038;12.706;2023-11-21T11:12:07;4.25;;;3.53;;
83026;SDS011;72842;56.038;12.706;2023-11-21T11:14:35;5.53;;;3.05;;
83026;SDS011;72842;56.038;12.706;2023-11-21T11:17:01;3.55;;;2.47;;
83026;SDS011;72842;56.038;12.706;2023-11-21T11:19:27;3.65;;;3.35;;
83026;SDS011;72842;56.038;12.706;2023-11-21T11:24:52;3.42;;;3.03;;
83026;SDS011;72842;56.038;12.706;2023-11-21T11:27:52;3.28;;;2.92;;
83026;SDS011;72842;56.038;12.706;2023-11-21T11:33:30;4.38;;;2.50;;
83026;SDS011;72842;56.038;12.706;2023-11-21T11:38:45;3.78;;;3.15;;
83026;SDS011;72842;56.038;12.706;2023-11-21T11:41:11;4.68;;;3.25;;
83026;SDS011;72842;56.038;12.706;2023-11-21T11:43:37;3.95;;;3.30;;
83026;SDS011;72842;56.038;12.706;2023-11-21T11:46:09;4.65;;;2.90;;
83026;SDS011;72842;56.038;12.706;2023-11-21T11:48:39;4.40;;;2.67;;
83026;SDS011;72842;56.038;12.706;2023-11-21T11:51:11;4.28;;;2.80;;
83026;SDS011;72842;56.038;12.706;2023-11-21T11:53:45;5.97;;;3.00;;
83026;SDS011;72842;56.038;12.706;2023-11-21T11:56:25;2.80;;;2.13;;
83026;SDS011;72842;56.038;12.706;2023-11-21T11:58:53;3.35;;;2.40;;
83026;SDS011;72842;56.038;12.706;2023-11-21T12:01:24;4.30;;;2.45;;
83026;SDS011;72842;56.038;12.706;2023-11-21T12:07:04;3.53;;;2.88;;
83026;SDS011;72842;56.038;12.706;2023-11-21T12:09:31;4.45;;;3.10;;
83026;SDS011;72842;56.038;12.706;2023-11-21T12:11:57;3.33;;;2.60;;
83026;SDS011;72842;56.038;12.706;2023-11-21T12:14:22;4.72;;;2.80;;
83026;SDS011;72842;56.038;12.706;2023-11-21T12:16:48;4.10;;;2.63;;
83026;SDS011;72842;56.038;12.706;2023-11-21T12:19:14;2.83;;;2.30;;
83026;SDS011;72842;56.038;12.706;2023-11-21T12:21:39;3.65;;;2.53;;
83026;SDS011;72842;56.038;12.706;2023-11-21T12:24:09;3.53;;;2.70;;
83026;SDS011;72842;56.038;12.706;2023-11-21T12:26:35;2.80;;;2.47;;
83026;SDS011;72842;56.038;12.706;2023-11-21T12:29:01;3.00;;;2.70;;
83026;SDS011;72842;56.038;12.706;2023-11-21T12:31:29;3.53;;;2.53;;
83026;SDS011;72842;56.038;12.706;2023-11-21T12:33:55;3.55;;;2.70;;
83026;SDS011;72842;56.038;12.706;2023-11-21T12:36:21;2.95;;;2.10;;
83026;SDS011;72842;56.038;12.706;2023-11-21T12:38:47;3.58;;;2.33;;
83026;SDS011;72842;56.038;12.706;2023-11-21T12:41:12;2.42;;;2.20;;
83026;SDS011;72842;56.038;12.706;2023-11-21T12:43:38;3.60;;;3.00;;
83026;SDS011;72842;56.038;12.706;2023-11-21T12:46:05;2.10;;;1.90;;
83026;SDS011;72842;56.038;12.706;2023-11-21T12:48:32;2.95;;;2.65;;
83026;SDS011;72842;56.038;12.706;2023-11-21T12:50:57;2.53;;;2.30;;
83026;SDS011;72842;56.038;12.706;2023-11-21T12:53:25;3.00;;;2.22;;
83026;SDS011;72842;56.038;12.706;2023-11-21T12:55:51;2.40;;;2.10;;
83026;SDS011;72842;56.038;12.706;2023-11-21T12:58:17;3.67;;;2.35;;
83026;SDS011;72842;56.038;12.706;2023-11-21T13:03:12;6.40;;;2.97;;
83026;SDS011;72842;56.038;12.706;2023-11-21T13:05:42;3.85;;;2.45;;
83026;SDS011;72842;56.038;12.706;2023-11-21T13:08:10;2.55;;;2.28;;
83026;SDS011;72842;56.038;12.706;2023-11-21T13:10:41;3.15;;;2.25;;
83026;SDS011;72842;56.038;12.706;2023-11-21T13:13:11;2.58;;;1.92;;
83026;SDS011;72842;56.038;12.706;2023-11-21T13:15:47;3.30;;;2.72;;
83026;SDS011;72842;56.038;12.706;2023-11-21T13:18:17;3.03;;;2.63;;
83026;SDS011;72842;56.038;12.706;2023-11-21T13:20:43;2.58;;;2.28;;
83026;SDS011;72842;56.038;12.706;2023-11-21T13:23:09;2.55;;;2.30;;
83026;SDS011;72842;56.038;12.706;2023-11-21T13:25:41;2.55;;;2.25;;
83026;SDS011;72842;56.038;12.706;2023-11-21T13:28:07;4.95;;;3.17;;
83026;SDS011;72842;56.038;12.706;2023-11-21T13:30:34;7.70;;;3.03;;
83026;SDS011;72842;56.038;12.706;2023-11-21T13:33:03;8.73;;;3.40;;
83026;SDS011;72842;56.038;12.706;2023-11-21T13:35:36;10.88;;;2.80;;
83026;SDS011;72842;56.038;12.706;2023-11-21T13:38:05;7.05;;;3.63;;
83026;SDS011;72842;56.038;12.706;2023-11-21T13:40:35;4.70;;;2.80;;
83026;SDS011;72842;56.038;12.706;2023-11-21T13:43:08;6.03;;;3.08;;
83026;SDS011;72842;56.038;12.706;2023-11-21T13:45:41;10.27;;;4.85;;
83026;SDS011;72842;56.038;12.706;2023-11-21T13:48:07;24.63;;;7.63;;
83026;SDS011;72842;56.038;12.706;2023-11-21T13:50:42;20.20;;;7.38;;
83026;SDS011;72842;56.038;12.706;2023-11-21T13:53:13;24.08;;;8.32;;
83026;SDS011;72842;56.038;12.706;2023-11-21T13:55:49;27.40;;;7.05;;
83026;SDS011;72842;56.038;12.706;2023-11-21T13:58:22;19.02;;;5.97;;
83026;SDS011;72842;56.038;12.706;2023-11-21T14:00:57;14.95;;;5.88;;
83026;SDS011;72842;56.038;12.706;2023-11-21T14:03:23;12.88;;;5.38;;
83026;SDS011;72842;56.038;12.706;2023-11-21T14:05:57;12.70;;;5.63;;
83026;SDS011;72842;56.038;12.706;2023-11-21T14:08:23;10.48;;;4.50;;
83026;SDS011;72842;56.038;12.706;2023-11-21T14:10:53;12.85;;;4.85;;
83026;SDS011;72842;56.038;12.706;2023-11-21T14:13:23;15.05;;;4.60;;
83026;SDS011;72842;56.038;12.706;2023-11-21T14:15:49;11.80;;;4.78;;
83026;SDS011;72842;56.038;12.706;2023-11-21T14:18:26;11.27;;;3.97;;
83026;SDS011;72842;56.038;12.706;2023-11-21T14:21:15;6.80;;;3.75;;
83026;SDS011;72842;56.038;12.706;2023-11-21T14:23:41;8.30;;;3.95;;
83026;SDS011;72842;56.038;12.706;2023-11-21T14:26:08;7.25;;;3.80;;
83026;SDS011;72842;56.038;12.706;2023-11-21T14:28:33;8.90;;;3.67;;
83026;SDS011;72842;56.038;12.706;2023-11-21T14:31:00;6.40;;;3.42;;
83026;SDS011;72842;56.038;12.706;2023-11-21T14:33:26;7.78;;;3.90;;
83026;SDS011;72842;56.038;12.706;2023-11-21T14:35:52;6.00;;;3.30;;
83026;SDS011;72842;56.038;12.706;2023-11-21T14:38:17;5.57;;;3.20;;
83026;SDS011;72842;56.038;12.706;2023-11-21T14:40:43;3.65;;;2.08;;
83026;SDS011;72842;56.038;12.706;2023-11-21T14:43:09;4.72;;;2.83;;
83026;SDS011;72842;56.038;12.706;2023-11-21T14:45:35;5.13;;;3.30;;
83026;SDS011;72842;56.038;12.706;2023-11-21T14:48:00;4.97;;;2.30;;
83026;SDS011;72842;56.038;12.706;2023-11-21T14:50:51;4.05;;;2.72;;
83026;SDS011;72842;56.038;12.706;2023-11-21T14:53:16;3.75;;;3.00;;
83026;SDS011;72842;56.038;12.706;2023-11-21T14:55:53;4.35;;;2.83;;